Time;durP1;ratioP1;P1;durP2;ratioP2;P2;SDS_P1;SDS_P2;PMS_P1;PMS_P2;Temp;Humidity;BMP_temperature;BMP_pressure;BME280_temperature;BME280_humidity;BME280_pressure;Samples;Min_cycle;Max_cycle;Signal;HPM_P1;HPM_P2
2023/01/23 00:00:07;;;;;;;14.23;5.90;;;3.20;99.90;;;;;;5035789;28;20104;-75
2023/01/23 00:02:33;;;;;;;17.10;6.30;;;3.10;99.90;;;;;;5052693;28;20124;-75
2023/01/23 00:04:58;;;;;;;11.18;6.00;;;3.10;99.90;;;;;;5051718;28;20105;-75
2023/01/23 00:07:25;;;;;;;15.48;5.63;;;3.20;99.90;;;;;;5033029;28;20191;-75
2023/01/23 00:09:50;;;;;;;11.73;5.63;;;3.20;99.90;;;;;;5050705;28;20099;-75
2023/01/23 00:12:16;;;;;;;14.10;5.80;;;3.20;99.90;;;;;;5051456;28;20595;-75
2023/01/23 00:14:41;;;;;;;11.75;5.78;;;3.20;99.90;;;;;;5034998;28;20136;-75
2023/01/23 00:17:07;;;;;;;10.95;5.72;;;3.20;99.90;;;;;;5051229;28;20045;-75
2023/01/23 00:19:32;;;;;;;14.38;6.50;;;3.10;99.90;;;;;;5052198;28;20466;-75
2023/01/23 00:21:59;;;;;;;13.10;6.10;;;3.10;99.90;;;;;;5035533;28;20037;-75
2023/01/23 00:24:25;;;;;;;12.93;5.82;;;3.10;99.90;;;;;;5050166;28;20040;-75
2023/01/23 00:26:51;;;;;;;12.02;5.82;;;3.20;99.90;;;;;;5050711;28;20098;-75
2023/01/23 00:29:16;;;;;;;12.10;5.90;;;3.10;99.90;;;;;;5052180;28;20032;-75
2023/01/23 00:31:42;;;;;;;12.98;5.38;;;3.10;99.90;;;;;;5051870;28;20123;-75
2023/01/23 00:34:11;;;;;;;12.65;5.90;;;3.10;99.90;;;;;;5034449;28;20048;-75
2023/01/23 00:36:39;;;;;;;12.77;6.00;;;3.10;99.90;;;;;;5051028;28;20056;-75
2023/01/23 00:39:07;;;;;;;12.65;6.13;;;3.10;99.90;;;;;;5034570;28;20052;-75
2023/01/23 00:41:33;;;;;;;12.00;5.82;;;3.10;99.90;;;;;;5034289;28;20401;-75
2023/01/23 00:43:59;;;;;;;10.57;5.70;;;3.10;99.90;;;;;;5051040;28;20037;-75
2023/01/23 00:46:25;;;;;;;13.88;6.22;;;3.10;99.90;;;;;;5034508;28;20439;-75
2023/01/23 00:48:51;;;;;;;11.15;5.35;;;3.10;99.90;;;;;;5051760;28;20055;-75
2023/01/23 00:51:17;;;;;;;12.68;6.20;;;3.10;99.90;;;;;;5051193;28;20032;-75
2023/01/23 00:53:43;;;;;;;13.45;5.75;;;3.20;99.90;;;;;;5051781;28;20036;-75
2023/01/23 00:56:09;;;;;;;11.27;5.68;;;3.10;99.90;;;;;;5032118;28;20123;-75
2023/01/23 00:58:35;;;;;;;13.10;5.82;;;3.10;99.90;;;;;;5035042;28;20041;-75
2023/01/23 01:01:00;;;;;;;13.27;5.30;;;3.20;99.90;;;;;;5035381;28;20397;-75
2023/01/23 01:03:26;;;;;;;12.55;5.68;;;3.10;99.90;;;;;;5051618;28;20041;-75
2023/01/23 01:05:52;;;;;;;11.90;5.80;;;3.20;99.90;;;;;;5049872;28;20199;-75
2023/01/23 01:08:18;;;;;;;11.15;5.43;;;3.20;99.90;;;;;;5034906;28;20053;-75
2023/01/23 01:10:43;;;;;;;11.48;5.25;;;3.20;99.90;;;;;;5035006;28;20124;-75
2023/01/23 01:13:09;;;;;;;14.32;5.45;;;3.20;99.90;;;;;;5051668;28;20047;-75
2023/01/23 01:15:36;;;;;;;14.18;5.60;;;3.20;99.90;;;;;;5033981;28;20060;-75
2023/01/23 01:18:01;;;;;;;13.43;5.68;;;3.20;99.90;;;;;;5050494;28;20520;-75
2023/01/23 01:20:28;;;;;;;11.40;4.93;;;3.20;99.90;;;;;;5050035;28;20036;-75
2023/01/23 01:22:55;;;;;;;10.63;5.35;;;3.20;99.90;;;;;;5033418;28;20065;-75
2023/01/23 01:25:21;;;;;;;11.13;5.53;;;3.20;99.90;;;;;;5050649;28;20124;-75
2023/01/23 01:27:47;;;;;;;12.00;6.13;;;3.20;99.90;;;;;;5051702;28;20120;-76
2023/01/23 01:30:13;;;;;;;11.60;5.45;;;3.20;99.90;;;;;;5055303;28;20044;-75
2023/01/23 01:32:40;;;;;;;11.10;5.50;;;3.20;99.90;;;;;;5055369;28;20132;-75
2023/01/23 01:35:08;;;;;;;13.68;6.38;;;3.20;99.90;;;;;;5054063;28;20040;-75
2023/01/23 01:37:35;;;;;;;13.20;6.63;;;3.10;99.90;;;;;;5054065;28;20069;-75
2023/01/23 01:40:00;;;;;;;11.60;5.85;;;3.10;99.90;;;;;;5038334;28;20211;-75
2023/01/23 01:42:27;;;;;;;12.40;6.07;;;3.20;99.90;;;;;;5038418;28;20048;-75
2023/01/23 01:44:57;;;;;;;15.18;6.80;;;3.10;99.90;;;;;;5037773;28;20481;-75
2023/01/23 01:47:22;;;;;;;12.38;5.97;;;3.10;99.90;;;;;;5053027;28;20049;-75
2023/01/23 01:49:50;;;;;;;11.23;5.40;;;3.10;99.90;;;;;;5051613;28;20044;-75
2023/01/23 01:52:18;;;;;;;14.07;6.35;;;3.10;99.90;;;;;;5037529;28;20085;-75
2023/01/23 01:54:53;;;;;;;12.20;6.07;;;3.10;99.90;;;;;;5038141;28;20051;-75
2023/01/23 01:57:20;;;;;;;13.77;6.55;;;3.20;99.90;;;;;;5053974;28;20072;-75
2023/01/23 01:59:56;;;;;;;12.38;6.25;;;3.20;99.90;;;;;;5055070;28;20041;-75
2023/01/23 02:02:28;;;;;;;12.65;5.93;;;3.20;99.90;;;;;;5038125;28;20052;-75
2023/01/23 02:05:02;;;;;;;11.90;6.32;;;3.10;99.90;;;;;;5054156;28;20040;-77
2023/01/23 02:07:58;;;;;;;10.30;6.20;;;3.10;99.90;;;;;;5037330;28;20041;-75
2023/01/23 02:10:24;;;;;;;11.07;5.88;;;3.10;99.90;;;;;;5037358;28;20461;-75
2023/01/23 02:12:51;;;;;;;11.90;6.50;;;3.20;99.90;;;;;;5037843;28;20124;-75
2023/01/23 02:15:20;;;;;;;11.90;6.07;;;3.10;99.90;;;;;;5037800;28;20045;-75
2023/01/23 02:17:47;;;;;;;12.27;6.30;;;3.10;99.90;;;;;;5036814;28;20040;-76
2023/01/23 02:20:20;;;;;;;11.88;6.50;;;3.10;99.90;;;;;;5036546;28;20049;-76
2023/01/23 02:23:04;;;;;;;12.68;5.72;;;3.20;99.90;;;;;;5054297;28;20565;-75
2023/01/23 02:25:41;;;;;;;10.90;6.45;;;3.20;99.90;;;;;;5052933;28;20416;-76
2023/01/23 02:28:08;;;;;;;13.27;6.82;;;3.10;99.90;;;;;;5017759;28;20053;-75
2023/01/23 02:30:35;;;;;;;12.13;6.65;;;3.20;99.90;;;;;;5017727;28;20478;-75
2023/01/23 02:33:31;;;;;;;13.80;5.88;;;3.10;99.90;;;;;;5017650;28;20042;-75
2023/01/23 02:36:04;;;;;;;11.73;7.65;;;3.10;99.90;;;;;;5034517;28;20093;-75
2023/01/23 02:38:36;;;;;;;12.85;6.07;;;3.10;99.90;;;;;;5036955;28;20032;-75
2023/01/23 02:41:04;;;;;;;10.27;5.90;;;3.10;99.90;;;;;;5037352;28;20041;-75
2023/01/23 02:43:34;;;;;;;12.52;6.50;;;3.20;99.90;;;;;;5036632;28;20106;-76
2023/01/23 02:46:05;;;;;;;11.27;6.22;;;3.20;99.90;;;;;;5052751;28;20052;-76
2023/01/23 02:48:30;;;;;;;13.40;6.45;;;3.20;99.90;;;;;;5037449;28;20091;-75
2023/01/23 02:50:56;;;;;;;12.45;6.53;;;3.10;99.90;;;;;;5035203;28;20129;-75
2023/01/23 02:53:22;;;;;;;13.82;6.70;;;3.20;99.90;;;;;;5053124;28;20036;-76
2023/01/23 02:55:47;;;;;;;15.80;7.32;;;3.10;99.90;;;;;;5029418;28;20088;-75
2023/01/23 03:00:57;;;;;;;12.88;7.32;;;3.10;99.90;;;;;;5050285;28;20045;-75
2023/01/23 03:03:23;;;;;;;12.88;6.63;;;3.10;99.90;;;;;;5052900;28;20091;-75
2023/01/23 03:05:49;;;;;;;13.68;6.38;;;3.10;99.90;;;;;;5035575;28;20503;-75
2023/01/23 03:08:15;;;;;;;11.65;6.35;;;3.10;99.90;;;;;;5052156;28;20298;-75
2023/01/23 03:10:40;;;;;;;12.77;6.63;;;3.10;99.90;;;;;;5047878;28;20404;-76
2023/01/23 03:13:08;;;;;;;12.10;6.80;;;3.20;99.90;;;;;;5066635;28;20129;-75
2023/01/23 03:15:34;;;;;;;12.93;7.25;;;3.10;99.90;;;;;;5051079;28;20053;-75
2023/01/23 03:18:00;;;;;;;13.63;7.60;;;3.10;99.90;;;;;;5052536;28;20174;-75
2023/01/23 03:20:28;;;;;;;13.15;7.43;;;3.10;99.90;;;;;;5049792;28;20128;-75
2023/01/23 03:22:54;;;;;;;13.45;7.00;;;3.10;99.90;;;;;;5035620;28;20068;-75
2023/01/23 03:25:20;;;;;;;11.70;6.53;;;3.10;99.90;;;;;;5033771;28;20041;-75
2023/01/23 03:27:45;;;;;;;12.25;7.18;;;3.10;99.90;;;;;;5050079;28;20049;-75
2023/01/23 03:30:13;;;;;;;14.88;6.78;;;3.10;99.90;;;;;;5051191;28;20033;-75
2023/01/23 03:32:42;;;;;;;11.15;6.68;;;3.10;99.90;;;;;;5034868;28;20064;-76
2023/01/23 03:35:12;;;;;;;13.50;7.65;;;3.20;99.90;;;;;;5046141;28;20060;-76
2023/01/23 03:37:38;;;;;;;12.43;7.30;;;3.10;99.90;;;;;;5050861;28;20037;-75
2023/01/23 03:42:48;;;;;;;12.63;6.97;;;3.10;99.90;;;;;;5051918;28;20041;-75
2023/01/23 03:45:13;;;;;;;11.75;7.20;;;3.10;99.90;;;;;;5034619;28;20033;-75
2023/01/23 03:47:39;;;;;;;13.35;8.10;;;3.10;99.90;;;;;;5035263;28;20125;-75
2023/01/23 03:50:06;;;;;;;14.10;7.38;;;3.10;99.90;;;;;;5033766;28;20033;-75
2023/01/23 03:52:32;;;;;;;11.38;6.95;;;3.10;99.90;;;;;;5024673;28;20042;-75
2023/01/23 03:54:57;;;;;;;13.52;7.20;;;3.20;99.90;;;;;;5050864;28;20110;-75
2023/01/23 03:57:23;;;;;;;11.45;7.28;;;3.20;99.90;;;;;;5051519;28;20072;-75
2023/01/23 03:59:48;;;;;;;11.77;7.10;;;3.20;99.90;;;;;;5051469;28;20040;-75
2023/01/23 04:02:14;;;;;;;13.23;8.02;;;3.20;99.90;;;;;;5050271;28;20073;-75
2023/01/23 04:04:40;;;;;;;13.55;7.75;;;3.10;99.90;;;;;;5052305;28;20041;-75
2023/01/23 04:07:05;;;;;;;15.35;8.25;;;3.10;99.90;;;;;;5051489;28;20043;-75
2023/01/23 04:09:31;;;;;;;15.63;7.85;;;3.10;99.90;;;;;;5051295;28;20477;-75
2023/01/23 04:11:58;;;;;;;13.00;7.72;;;3.10;99.90;;;;;;5049387;28;20087;-75
2023/01/23 04:14:25;;;;;;;14.15;7.82;;;3.10;99.90;;;;;;5050537;28;20075;-75
2023/01/23 04:16:52;;;;;;;17.60;8.73;;;3.10;99.90;;;;;;5033802;28;20044;-76
2023/01/23 04:19:18;;;;;;;13.38;7.47;;;3.10;99.90;;;;;;5034112;28;20068;-75
2023/01/23 04:21:48;;;;;;;14.27;8.43;;;3.10;99.90;;;;;;5035197;28;20512;-75
2023/01/23 04:24:15;;;;;;;14.73;8.25;;;3.10;99.90;;;;;;5049430;28;20033;-75
2023/01/23 04:26:40;;;;;;;13.15;7.85;;;3.10;99.90;;;;;;5034856;28;20041;-75
2023/01/23 04:29:06;;;;;;;15.40;7.90;;;3.10;99.90;;;;;;5034016;28;20046;-75
2023/01/23 04:31:31;;;;;;;14.30;7.82;;;3.10;99.90;;;;;;5049922;28;20397;-76
2023/01/23 04:33:57;;;;;;;15.52;8.23;;;3.10;99.90;;;;;;5032595;28;20055;-75
2023/01/23 04:36:23;;;;;;;14.77;8.73;;;3.10;99.90;;;;;;5051766;28;20410;-75
2023/01/23 04:38:48;;;;;;;12.65;7.78;;;3.10;99.90;;;;;;5050953;28;20103;-75
2023/01/23 04:41:20;;;;;;;14.20;7.53;;;3.10;99.90;;;;;;5052066;28;20045;-76
2023/01/23 04:43:46;;;;;;;13.57;7.57;;;3.10;99.90;;;;;;5050743;28;20122;-76
2023/01/23 04:46:11;;;;;;;14.35;8.82;;;3.10;99.90;;;;;;5034760;28;20092;-75
2023/01/23 04:48:37;;;;;;;13.27;7.50;;;3.10;99.90;;;;;;5050310;28;20040;-75
2023/01/23 04:51:03;;;;;;;13.00;7.65;;;3.10;99.90;;;;;;5033858;28;20039;-75
2023/01/23 04:53:28;;;;;;;15.48;7.75;;;3.10;99.90;;;;;;5031696;28;20504;-76
2023/01/23 04:55:54;;;;;;;13.93;8.27;;;3.10;99.90;;;;;;5033897;28;20033;-75
2023/01/23 04:58:20;;;;;;;14.27;8.38;;;3.00;99.90;;;;;;5048695;28;20048;-76
2023/01/23 05:00:46;;;;;;;13.50;8.20;;;3.10;99.90;;;;;;5033385;28;20087;-76
2023/01/23 05:03:12;;;;;;;14.88;8.00;;;3.00;99.90;;;;;;5049221;28;20044;-75
2023/01/23 05:05:37;;;;;;;14.07;8.30;;;3.10;99.90;;;;;;5055814;28;20044;-75
2023/01/23 05:08:03;;;;;;;14.75;8.32;;;3.10;99.90;;;;;;5055512;28;20029;-76
2023/01/23 05:10:29;;;;;;;16.35;8.95;;;3.10;99.90;;;;;;5052353;28;20037;-76
2023/01/23 05:12:55;;;;;;;13.65;7.93;;;3.10;99.90;;;;;;5052590;28;20040;-75
2023/01/23 05:15:20;;;;;;;13.05;7.90;;;3.00;99.90;;;;;;5036886;28;20053;-75
2023/01/23 05:17:47;;;;;;;12.93;7.47;;;3.00;99.90;;;;;;5037991;28;20417;-75
2023/01/23 05:20:13;;;;;;;13.43;7.80;;;3.00;99.90;;;;;;5049977;28;20036;-75
2023/01/23 05:22:50;;;;;;;12.75;8.00;;;3.10;99.90;;;;;;5054599;28;20049;-75
2023/01/23 05:25:23;;;;;;;11.68;8.07;;;3.10;99.90;;;;;;5036122;28;20033;-75
2023/01/23 05:27:49;;;;;;;13.13;7.30;;;3.10;99.90;;;;;;5053467;28;20484;-75
2023/01/23 05:30:16;;;;;;;17.63;7.78;;;3.10;99.90;;;;;;5051403;28;20116;-75
2023/01/23 05:32:42;;;;;;;14.27;7.65;;;3.10;99.90;;;;;;5052526;28;20470;-75
2023/01/23 05:35:09;;;;;;;14.13;7.22;;;3.10;99.90;;;;;;5037820;28;20041;-76
2023/01/23 05:37:35;;;;;;;13.45;7.32;;;3.10;99.90;;;;;;5053767;28;20119;-75
2023/01/23 05:40:02;;;;;;;13.02;6.60;;;3.10;99.90;;;;;;5053136;28;20082;-75
2023/01/23 05:42:27;;;;;;;14.82;6.90;;;3.10;99.90;;;;;;5036919;28;20041;-76
2023/01/23 05:44:53;;;;;;;10.88;7.07;;;3.10;99.90;;;;;;5053303;28;20037;-75
2023/01/23 05:47:18;;;;;;;11.73;6.72;;;3.10;99.90;;;;;;5036054;28;20493;-75
2023/01/23 05:49:44;;;;;;;15.35;7.93;;;3.00;99.90;;;;;;5037355;28;20037;-75
2023/01/23 05:52:10;;;;;;;12.48;7.82;;;3.10;99.90;;;;;;5035493;28;20509;-75
2023/01/23 05:54:36;;;;;;;13.00;7.75;;;3.10;99.90;;;;;;5053493;28;20048;-75
2023/01/23 05:57:02;;;;;;;16.08;7.53;;;3.10;99.90;;;;;;5034431;28;20037;-76
2023/01/23 05:59:27;;;;;;;29.20;26.73;;;3.00;99.90;;;;;;5037676;28;20127;-75
2023/01/23 06:01:53;;;;;;;13.13;9.80;;;3.00;99.90;;;;;;5035737;28;20036;-76
2023/01/23 06:04:18;;;;;;;13.80;7.85;;;3.00;99.90;;;;;;5036366;28;20037;-75
2023/01/23 06:06:45;;;;;;;14.13;7.63;;;3.00;99.90;;;;;;5032561;28;20045;-76
2023/01/23 06:09:10;;;;;;;12.77;8.40;;;3.00;99.90;;;;;;5053103;28;20045;-75
2023/01/23 06:11:36;;;;;;;15.52;7.55;;;3.00;99.90;;;;;;5052693;28;20025;-76
2023/01/23 06:14:02;;;;;;;13.13;7.38;;;3.00;99.90;;;;;;5052119;28;20040;-75
2023/01/23 06:16:27;;;;;;;14.25;8.52;;;3.00;99.90;;;;;;5035686;28;20057;-75
2023/01/23 06:18:53;;;;;;;15.55;8.57;;;3.00;99.90;;;;;;5037245;28;20397;-75
2023/01/23 06:21:18;;;;;;;14.35;7.50;;;2.90;99.90;;;;;;5036920;28;20041;-76
2023/01/23 06:23:45;;;;;;;12.30;8.13;;;2.90;99.90;;;;;;5035717;28;20036;-75
2023/01/23 06:26:11;;;;;;;14.65;8.20;;;2.90;99.90;;;;;;5053125;28;20132;-75
2023/01/23 06:28:36;;;;;;;14.45;8.55;;;2.90;99.90;;;;;;5051031;28;20113;-75
2023/01/23 06:31:02;;;;;;;13.07;7.82;;;2.90;99.90;;;;;;5052604;28;20032;-75
2023/01/23 06:33:29;;;;;;;11.40;7.15;;;2.90;99.90;;;;;;5052931;28;20033;-75
2023/01/23 06:36:03;;;;;;;12.40;7.15;;;2.90;99.90;;;;;;5046951;28;20059;-75
2023/01/23 06:38:29;;;;;;;13.73;8.10;;;2.90;99.90;;;;;;5035758;28;20410;-75
2023/01/23 06:40:55;;;;;;;12.02;7.55;;;2.90;99.90;;;;;;5044816;28;20041;-75
2023/01/23 06:43:22;;;;;;;14.43;7.70;;;2.90;99.90;;;;;;5042341;28;20044;-75
2023/01/23 06:45:48;;;;;;;14.32;7.63;;;2.90;99.90;;;;;;5031574;28;20131;-75
2023/01/23 06:48:13;;;;;;;13.98;7.43;;;2.90;99.90;;;;;;5035612;28;20132;-75
2023/01/23 06:50:41;;;;;;;12.93;7.78;;;2.90;99.90;;;;;;5049243;28;20152;-75
2023/01/23 06:53:06;;;;;;;12.10;7.07;;;2.90;99.90;;;;;;5043358;28;20037;-76
2023/01/23 06:55:34;;;;;;;14.38;8.45;;;2.90;99.90;;;;;;5029181;28;20389;-76
2023/01/23 06:57:59;;;;;;;14.90;8.05;;;2.90;99.90;;;;;;5042386;28;20056;-75
2023/01/23 07:00:26;;;;;;;15.43;7.47;;;2.90;99.90;;;;;;5033408;28;20041;-75
2023/01/23 07:02:52;;;;;;;13.80;7.60;;;2.90;99.90;;;;;;5044928;28;20046;-75
2023/01/23 07:05:19;;;;;;;12.15;7.35;;;2.90;99.90;;;;;;5043787;28;20046;-76
2023/01/23 07:07:45;;;;;;;13.50;6.68;;;2.90;99.90;;;;;;5052400;28;20032;-75
2023/01/23 07:10:11;;;;;;;11.43;7.20;;;2.90;99.90;;;;;;5055583;28;20466;-76
2023/01/23 07:12:36;;;;;;;12.10;7.13;;;2.90;99.90;;;;;;5056629;28;20123;-76
2023/01/23 07:15:03;;;;;;;12.40;7.63;;;2.90;99.90;;;;;;5047223;28;20049;-75
2023/01/23 07:17:28;;;;;;;16.05;8.00;;;2.90;99.90;;;;;;5052403;28;20131;-75
2023/01/23 07:19:54;;;;;;;13.05;7.18;;;2.90;99.90;;;;;;5050718;28;21004;-75
2023/01/23 07:22:21;;;;;;;15.40;7.32;;;2.90;99.90;;;;;;5034028;28;20040;-75
2023/01/23 07:24:47;;;;;;;12.63;7.40;;;2.90;99.90;;;;;;5049459;28;20076;-75
2023/01/23 07:27:13;;;;;;;13.77;8.32;;;2.90;99.90;;;;;;5050538;28;20065;-76
2023/01/23 07:29:40;;;;;;;16.88;8.68;;;2.90;99.90;;;;;;5066480;28;20523;-76
2023/01/23 07:32:05;;;;;;;12.25;7.80;;;2.90;99.90;;;;;;5049663;28;20090;-75
2023/01/23 07:34:31;;;;;;;16.15;8.25;;;2.90;99.90;;;;;;5035210;28;20432;-76
2023/01/23 07:36:57;;;;;;;13.60;8.38;;;2.90;99.90;;;;;;5050635;28;20592;-76
2023/01/23 07:39:22;;;;;;;13.55;8.10;;;2.90;99.90;;;;;;5051720;28;20068;-75
2023/01/23 07:41:48;;;;;;;14.65;7.65;;;2.90;99.90;;;;;;5031044;28;20082;-75
2023/01/23 07:44:16;;;;;;;14.45;7.95;;;2.90;99.90;;;;;;5035936;28;20043;-75
2023/01/23 07:46:43;;;;;;;12.40;7.25;;;2.90;99.90;;;;;;5033062;28;20068;-76
2023/01/23 07:49:08;;;;;;;14.80;8.18;;;2.90;99.90;;;;;;5030713;28;20065;-75
2023/01/23 07:51:34;;;;;;;14.57;8.05;;;2.90;99.90;;;;;;5051248;28;20072;-76
2023/01/23 07:54:00;;;;;;;10.30;5.90;;;2.90;99.90;;;;;;5034846;28;20466;-75
2023/01/23 07:56:25;;;;;;;15.02;8.18;;;2.90;99.90;;;;;;5050668;28;20623;-75
2023/01/23 07:58:51;;;;;;;14.05;7.97;;;2.90;99.90;;;;;;5035291;28;20041;-76
2023/01/23 08:01:18;;;;;;;13.77;7.82;;;2.90;99.90;;;;;;5035826;28;20045;-76
2023/01/23 08:03:44;;;;;;;15.70;8.98;;;2.90;99.90;;;;;;5048930;28;20033;-76
2023/01/23 08:06:10;;;;;;;11.90;7.47;;;2.90;99.90;;;;;;5034710;28;20409;-75
2023/01/23 08:08:35;;;;;;;12.52;8.02;;;2.90;99.90;;;;;;5034970;28;20056;-76
2023/01/23 08:11:06;;;;;;;15.18;8.52;;;2.90;99.90;;;;;;5050128;28;20064;-75
2023/01/23 08:13:31;;;;;;;18.55;9.13;;;2.90;99.90;;;;;;5035606;28;20044;-76
2023/01/23 08:15:58;;;;;;;13.48;8.10;;;2.90;99.90;;;;;;5050714;28;20053;-75
2023/01/23 08:18:24;;;;;;;16.00;8.55;;;2.90;99.90;;;;;;5050721;28;20550;-75
2023/01/23 08:20:58;;;;;;;15.98;8.13;;;2.90;99.90;;;;;;5058210;28;20033;-75
2023/01/23 08:23:29;;;;;;;13.50;8.27;;;2.90;99.90;;;;;;5049912;28;20037;-75
2023/01/23 08:25:57;;;;;;;13.68;7.72;;;2.90;99.90;;;;;;5049857;28;20085;-76
2023/01/23 08:28:23;;;;;;;12.50;6.70;;;2.90;99.90;;;;;;5051434;28;20547;-75
2023/01/23 08:30:49;;;;;;;12.05;6.57;;;3.00;99.90;;;;;;5034571;28;20033;-75
2023/01/23 08:33:16;;;;;;;12.55;7.47;;;3.00;99.90;;;;;;5048394;28;20040;-75
2023/01/23 08:35:52;;;;;;;11.80;7.35;;;3.00;99.90;;;;;;5068035;28;20406;-75
2023/01/23 08:38:18;;;;;;;12.88;6.88;;;3.00;99.90;;;;;;5033855;28;20041;-75
2023/01/23 08:40:45;;;;;;;13.95;7.15;;;3.00;99.90;;;;;;5049624;28;20039;-75
2023/01/23 08:43:12;;;;;;;11.68;7.05;;;3.00;99.90;;;;;;5050422;28;20090;-76
2023/01/23 08:45:44;;;;;;;14.02;7.30;;;3.00;99.90;;;;;;5037069;28;20051;-76
2023/01/23 08:48:11;;;;;;;12.00;6.28;;;3.00;99.90;;;;;;5048784;28;20056;-76
2023/01/23 08:50:36;;;;;;;12.68;6.80;;;3.00;99.90;;;;;;5028862;28;20037;-75
2023/01/23 08:53:02;;;;;;;11.00;6.68;;;3.00;99.90;;;;;;5033647;28;20041;-76
2023/01/23 08:55:28;;;;;;;12.77;7.35;;;3.10;99.90;;;;;;5033615;28;20041;-76
2023/01/23 08:57:54;;;;;;;11.95;7.15;;;3.00;99.90;;;;;;5051594;28;20564;-76
2023/01/23 09:00:20;;;;;;;11.13;7.07;;;3.10;99.90;;;;;;5050547;28;20132;-75
2023/01/23 09:02:46;;;;;;;12.82;7.30;;;3.10;99.90;;;;;;5033537;28;20083;-76
2023/01/23 09:05:12;;;;;;;10.43;7.05;;;3.10;99.90;;;;;;5033240;28;20044;-76
2023/01/23 09:07:39;;;;;;;11.45;6.68;;;3.10;99.90;;;;;;5033946;28;20037;-76
2023/01/23 09:10:06;;;;;;;13.65;6.75;;;3.10;99.90;;;;;;5039972;28;20040;-76
2023/01/23 09:12:31;;;;;;;13.95;6.32;;;3.20;99.90;;;;;;5032811;28;20041;-76
2023/01/23 09:14:58;;;;;;;12.35;6.60;;;3.10;99.90;;;;;;5032922;28;20057;-75
2023/01/23 09:17:23;;;;;;;13.60;7.10;;;3.20;99.90;;;;;;5048725;28;20088;-75
2023/01/23 09:19:49;;;;;;;12.75;6.68;;;3.20;99.90;;;;;;5032707;28;20072;-76
2023/01/23 09:22:18;;;;;;;11.70;5.97;;;3.20;99.90;;;;;;5068235;28;20135;-75
2023/01/23 09:24:44;;;;;;;10.63;6.25;;;3.20;99.90;;;;;;5033392;28;20048;-76
2023/01/23 09:27:10;;;;;;;10.48;6.45;;;3.30;99.90;;;;;;5040791;28;20044;-75
2023/01/23 09:29:35;;;;;;;11.68;6.40;;;3.20;99.90;;;;;;5052325;28;20037;-76
2023/01/23 09:32:01;;;;;;;10.65;6.25;;;3.20;99.90;;;;;;5049315;28;20040;-76
2023/01/23 09:34:28;;;;;;;13.13;6.97;;;3.30;99.90;;;;;;5049779;28;20041;-76
2023/01/23 09:36:53;;;;;;;11.20;6.65;;;3.30;99.90;;;;;;5050556;28;20041;-76
2023/01/23 09:39:19;;;;;;;11.65;6.32;;;3.30;99.90;;;;;;5050150;28;20505;-75
2023/01/23 09:41:46;;;;;;;10.90;6.25;;;3.30;99.90;;;;;;5050027;28;20040;-76
2023/01/23 09:44:21;;;;;;;11.68;6.78;;;3.30;99.90;;;;;;5037733;28;20049;-76
2023/01/23 09:46:52;;;;;;;10.70;7.00;;;3.30;99.90;;;;;;5027406;28;20532;-76
2023/01/23 09:49:33;;;;;;;10.55;6.68;;;3.20;99.90;;;;;;5035041;28;20776;-76
2023/01/23 09:52:18;;;;;;;10.48;6.43;;;3.30;99.90;;;;;;5037869;28;20458;-76
2023/01/23 09:54:56;;;;;;;12.13;6.90;;;3.40;99.90;;;;;;5052407;28;20115;-76
2023/01/23 09:57:29;;;;;;;12.38;7.15;;;3.40;99.90;;;;;;5053839;28;20528;-76
2023/01/23 10:00:33;;;;;;;;;;;3.40;99.90;;;;;;5052641;28;20493;-76
2023/01/23 10:03:10;;;;;;;12.88;6.95;;;3.40;99.90;;;;;;4965685;28;19929;-76
2023/01/23 10:06:01;;;;;;;9.55;5.80;;;3.40;99.90;;;;;;4969089;28;20050;-76
2023/01/23 10:09:00;;;;;;;11.35;6.38;;;3.50;99.90;;;;;;5012622;28;20136;-76
2023/01/23 10:11:40;;;;;;;9.73;6.05;;;3.50;99.90;;;;;;5033238;28;20136;-76
2023/01/23 10:14:44;;;;;;;12.38;6.22;;;3.50;99.90;;;;;;5036912;28;20421;-76
2023/01/23 10:17:31;;;;;;;12.95;6.80;;;3.50;99.90;;;;;;5052217;28;20044;-76
2023/01/23 10:20:18;;;;;;;10.80;6.47;;;3.60;99.90;;;;;;5031899;28;20071;-76
2023/01/23 10:23:01;;;;;;;11.02;6.28;;;3.50;99.90;;;;;;5034967;28;20040;-76
2023/01/23 10:25:34;;;;;;;11.48;6.65;;;3.50;99.90;;;;;;5052206;28;20041;-76
2023/01/23 10:28:24;;;;;;;11.88;6.40;;;3.60;99.90;;;;;;5035714;28;20642;-76
2023/01/23 10:30:54;;;;;;;9.38;6.18;;;3.60;99.90;;;;;;5053693;28;20048;-77
2023/01/23 10:33:36;;;;;;;10.45;6.20;;;3.60;99.90;;;;;;5034344;28;20485;-76
2023/01/23 10:36:18;;;;;;;11.55;6.65;;;3.60;99.90;;;;;;5040022;28;20047;-76
2023/01/23 10:39:11;;;;;;;10.98;6.72;;;3.60;99.90;;;;;;5052672;28;20033;-76
2023/01/23 10:41:38;;;;;;;11.10;6.97;;;3.60;99.90;;;;;;5053015;28;20397;-76
2023/01/23 10:44:15;;;;;;;11.20;6.85;;;3.60;99.90;;;;;;5069849;28;20079;-76
2023/01/23 10:46:48;;;;;;;10.93;6.32;;;3.60;99.90;;;;;;5035048;28;20040;-76
2023/01/23 10:49:29;;;;;;;11.00;6.70;;;3.60;99.90;;;;;;5050689;28;20029;-76
2023/01/23 10:51:55;;;;;;;12.48;6.85;;;3.60;99.90;;;;;;5034800;28;20063;-76
2023/01/23 10:54:27;;;;;;;11.13;7.88;;;3.70;99.90;;;;;;5036333;28;20122;-76
2023/01/23 10:56:57;;;;;;;13.23;7.28;;;3.70;99.90;;;;;;5051249;28;20052;-76
2023/01/23 10:59:35;;;;;;;12.00;7.07;;;3.70;99.90;;;;;;5028029;28;20404;-76
2023/01/23 11:02:13;;;;;;;11.55;6.88;;;3.70;99.90;;;;;;5052999;28;20041;-76
2023/01/23 11:04:45;;;;;;;11.55;7.25;;;3.80;99.90;;;;;;5052251;28;20045;-76
2023/01/23 11:07:29;;;;;;;12.30;7.55;;;3.80;99.90;;;;;;5049357;28;20061;-76
2023/01/23 11:10:00;;;;;;;11.23;7.15;;;3.70;99.90;;;;;;5061750;28;20401;-76
2023/01/23 11:12:44;;;;;;;12.18;7.60;;;3.70;99.90;;;;;;5034675;28;20426;-76
2023/01/23 11:15:21;;;;;;;12.27;7.93;;;3.80;99.90;;;;;;5035504;28;20049;-75
2023/01/23 11:17:48;;;;;;;13.38;7.57;;;3.90;99.90;;;;;;5035867;28;20502;-76
2023/01/23 11:20:36;;;;;;;13.02;7.20;;;3.80;99.90;;;;;;5050299;28;20036;-76
2023/01/23 11:23:09;;;;;;;12.93;7.82;;;3.80;99.90;;;;;;5028994;28;20079;-76
2023/01/23 11:25:37;;;;;;;14.10;8.70;;;3.80;99.90;;;;;;5036049;28;20063;-76
2023/01/23 11:28:32;;;;;;;12.77;7.68;;;3.80;99.90;;;;;;5066482;28;20556;-76
2023/01/23 11:31:12;;;;;;;12.13;7.60;;;3.80;99.90;;;;;;5052029;28;20389;-76
2023/01/23 11:33:53;;;;;;;15.13;8.60;;;3.90;99.90;;;;;;5050541;28;20087;-76
2023/01/23 11:36:18;;;;;;;12.68;7.97;;;3.80;99.90;;;;;;5032772;28;20040;-76
2023/01/23 11:38:55;;;;;;;13.98;7.88;;;3.80;99.90;;;;;;5032762;28;20390;-76
2023/01/23 11:41:28;;;;;;;12.50;7.70;;;3.80;99.90;;;;;;5046847;28;20033;-76
2023/01/23 11:43:54;;;;;;;13.32;7.88;;;3.80;99.90;;;;;;5037436;28;20056;-76
2023/01/23 11:46:43;;;;;;;13.18;8.05;;;3.80;99.90;;;;;;5034591;28;20512;-75
2023/01/23 11:49:26;;;;;;;13.75;7.32;;;3.80;99.90;;;;;;5051519;28;20049;-76
2023/01/23 11:52:13;;;;;;;11.57;6.97;;;3.90;99.90;;;;;;5052062;28;20040;-76
2023/01/23 11:55:09;;;;;;;13.07;8.20;;;3.90;99.90;;;;;;5049776;28;20037;-75
2023/01/23 11:57:50;;;;;;;13.38;8.30;;;3.90;99.90;;;;;;5051639;28;20126;-76
2023/01/23 12:00:20;;;;;;;14.45;7.95;;;3.90;99.90;;;;;;5036815;28;20037;-76
2023/01/23 12:03:14;;;;;;;14.15;7.43;;;3.90;99.90;;;;;;5035215;28;20036;-76
2023/01/23 12:05:48;;;;;;;12.95;8.50;;;3.90;99.90;;;;;;5068505;28;20155;-76
2023/01/23 12:08:30;;;;;;;13.20;8.10;;;3.90;99.90;;;;;;5036025;28;20497;-76
2023/01/23 12:11:15;;;;;;;13.02;8.05;;;3.90;99.90;;;;;;5048214;28;20113;-76
2023/01/23 12:14:10;;;;;;;13.45;8.88;;;4.00;99.90;;;;;;5043957;28;20405;-76
2023/01/23 12:17:03;;;;;;;13.27;8.52;;;3.90;99.90;;;;;;5027073;28;20056;-76
2023/01/23 12:19:37;;;;;;;13.32;8.13;;;3.90;99.90;;;;;;5062215;28;20040;-76
2023/01/23 12:22:29;;;;;;;14.55;8.38;;;3.90;99.90;;;;;;5049197;28;20033;-76
2023/01/23 12:25:10;;;;;;;17.50;9.35;;;3.90;99.90;;;;;;5049354;28;20037;-76
2023/01/23 12:27:44;;;;;;;14.98;9.25;;;3.90;99.90;;;;;;5050393;28;20040;-76
2023/01/23 12:30:40;;;;;;;13.70;8.73;;;3.90;99.90;;;;;;5030000;28;20447;-77
2023/01/23 12:33:32;;;;;;;15.85;8.95;;;4.00;99.90;;;;;;5067817;28;20029;-76
2023/01/23 12:36:17;;;;;;;14.38;9.10;;;4.00;99.90;;;;;;5030606;28;20029;-76
2023/01/23 12:39:03;;;;;;;14.02;9.40;;;3.90;99.90;;;;;;5042984;28;20041;-76
2023/01/23 12:41:37;;;;;;;16.40;10.20;;;3.90;99.90;;;;;;5034153;28;20094;-76
2023/01/23 12:44:20;;;;;;;15.60;9.95;;;3.90;99.90;;;;;;5035381;28;20089;-76
2023/01/23 12:46:54;;;;;;;16.25;9.80;;;3.90;99.90;;;;;;5034659;28;20045;-76
2023/01/23 12:49:47;;;;;;;18.52;11.55;;;4.00;99.90;;;;;;5034138;28;20076;-76
2023/01/23 12:52:22;;;;;;;17.73;9.48;;;4.00;99.90;;;;;;5048329;28;20048;-76
2023/01/23 12:55:21;;;;;;;15.73;9.65;;;3.90;99.90;;;;;;5067796;28;20047;-76
2023/01/23 12:57:50;;;;;;;16.17;9.57;;;4.00;99.90;;;;;;5052041;28;20143;-76
2023/01/23 13:00:34;;;;;;;15.82;10.48;;;4.00;99.90;;;;;;5048881;28;20041;-76
2023/01/23 13:03:13;;;;;;;15.98;10.00;;;4.00;99.90;;;;;;5015361;28;20073;-76
2023/01/23 13:05:57;;;;;;;14.27;9.18;;;3.90;99.90;;;;;;5018183;28;20041;-76
2023/01/23 13:08:58;;;;;;;15.43;10.02;;;3.90;99.90;;;;;;5051588;28;20511;-76